sensor_id;sensor_type;location;lat;lon;timestamp;P1;durP1;ratioP1;P2;durP2;ratioP2
65998;SDS011;52766;56.008;37.440;2024-02-26T00:01:58;7.93;;;2.97;;
65998;SDS011;52766;56.008;37.440;2024-02-26T00:04:24;8.38;;;3.47;;
65998;SDS011;52766;56.008;37.440;2024-02-26T00:06:50;8.55;;;3.85;;
65998;SDS011;52766;56.008;37.440;2024-02-26T00:09:16;10.63;;;4.00;;
65998;SDS011;52766;56.008;37.440;2024-02-26T00:11:42;9.82;;;3.85;;
65998;SDS011;52766;56.008;37.440;2024-02-26T00:14:09;9.55;;;3.55;;
65998;SDS011;52766;56.008;37.440;2024-02-26T00:16:34;10.73;;;3.60;;
65998;SDS011;52766;56.008;37.440;2024-02-26T00:19:00;9.48;;;3.50;;
65998;SDS011;52766;56.008;37.440;2024-02-26T00:21:28;8.43;;;3.60;;
65998;SDS011;52766;56.008;37.440;2024-02-26T00:23:56;9.27;;;3.63;;
65998;SDS011;52766;56.008;37.440;2024-02-26T00:26:22;11.45;;;4.03;;
65998;SDS011;52766;56.008;37.440;2024-02-26T00:28:49;8.68;;;3.67;;
65998;SDS011;52766;56.008;37.440;2024-02-26T00:31:14;11.23;;;3.75;;
65998;SDS011;52766;56.008;37.440;2024-02-26T00:33:40;12.95;;;3.88;;
65998;SDS011;52766;56.008;37.440;2024-02-26T00:36:06;8.45;;;3.33;;
65998;SDS011;52766;56.008;37.440;2024-02-26T00:38:32;8.25;;;3.88;;
65998;SDS011;52766;56.008;37.440;2024-02-26T00:40:58;9.38;;;3.90;;
65998;SDS011;52766;56.008;37.440;2024-02-26T00:43:24;8.07;;;3.55;;
65998;SDS011;52766;56.008;37.440;2024-02-26T00:45:50;8.38;;;3.40;;
65998;SDS011;52766;56.008;37.440;2024-02-26T00:48:17;7.63;;;3.70;;
65998;SDS011;52766;56.008;37.440;2024-02-26T00:50:43;9.50;;;4.00;;
65998;SDS011;52766;56.008;37.440;2024-02-26T00:53:09;7.45;;;3.38;;
65998;SDS011;52766;56.008;37.440;2024-02-26T00:55:35;8.40;;;3.63;;
65998;SDS011;52766;56.008;37.440;2024-02-26T00:58:00;7.72;;;3.45;;
65998;SDS011;52766;56.008;37.440;2024-02-26T01:00:27;6.70;;;3.08;;
65998;SDS011;52766;56.008;37.440;2024-02-26T01:02:53;7.07;;;2.78;;
65998;SDS011;52766;56.008;37.440;2024-02-26T01:05:19;7.97;;;3.30;;
65998;SDS011;52766;56.008;37.440;2024-02-26T01:07:44;10.18;;;3.40;;
65998;SDS011;52766;56.008;37.440;2024-02-26T01:10:10;4.80;;;2.47;;
65998;SDS011;52766;56.008;37.440;2024-02-26T01:12:36;7.50;;;3.30;;
65998;SDS011;52766;56.008;37.440;2024-02-26T01:15:02;8.82;;;3.15;;
65998;SDS011;52766;56.008;37.440;2024-02-26T01:17:31;6.15;;;2.92;;
65998;SDS011;52766;56.008;37.440;2024-02-26T01:19:57;6.03;;;2.40;;
65998;SDS011;52766;56.008;37.440;2024-02-26T01:22:23;4.63;;;1.60;;
65998;SDS011;52766;56.008;37.440;2024-02-26T01:24:48;5.78;;;2.53;;
65998;SDS011;52766;56.008;37.440;2024-02-26T01:27:14;7.57;;;2.92;;
65998;SDS011;52766;56.008;37.440;2024-02-26T01:29:41;8.50;;;3.00;;
65998;SDS011;52766;56.008;37.440;2024-02-26T01:32:07;10.02;;;3.13;;
65998;SDS011;52766;56.008;37.440;2024-02-26T01:34:34;8.75;;;2.97;;
65998;SDS011;52766;56.008;37.440;2024-02-26T01:37:02;7.05;;;3.15;;
65998;SDS011;52766;56.008;37.440;2024-02-26T01:39:28;8.48;;;3.22;;
65998;SDS011;52766;56.008;37.440;2024-02-26T01:41:55;8.65;;;3.10;;
65998;SDS011;52766;56.008;37.440;2024-02-26T01:44:21;6.38;;;2.95;;
65998;SDS011;52766;56.008;37.440;2024-02-26T01:46:47;6.25;;;2.45;;
65998;SDS011;52766;56.008;37.440;2024-02-26T01:49:14;8.63;;;3.33;;
65998;SDS011;52766;56.008;37.440;2024-02-26T01:51:42;7.40;;;3.47;;
65998;SDS011;52766;56.008;37.440;2024-02-26T01:54:10;9.30;;;3.90;;
65998;SDS011;52766;56.008;37.440;2024-02-26T01:56:36;8.75;;;3.38;;
65998;SDS011;52766;56.008;37.440;2024-02-26T01:59:03;6.40;;;2.38;;
65998;SDS011;52766;56.008;37.440;2024-02-26T02:01:30;5.47;;;2.22;;
65998;SDS011;52766;56.008;37.440;2024-02-26T02:03:58;9.25;;;3.15;;
65998;SDS011;52766;56.008;37.440;2024-02-26T02:06:25;9.20;;;3.30;;
65998;SDS011;52766;56.008;37.440;2024-02-26T02:08:57;7.43;;;3.55;;
65998;SDS011;52766;56.008;37.440;2024-02-26T02:11:24;6.45;;;2.88;;
65998;SDS011;52766;56.008;37.440;2024-02-26T02:13:50;7.82;;;2.78;;
65998;SDS011;52766;56.008;37.440;2024-02-26T02:16:17;8.38;;;3.42;;
65998;SDS011;52766;56.008;37.440;2024-02-26T02:18:43;9.57;;;3.10;;
65998;SDS011;52766;56.008;37.440;2024-02-26T02:21:09;9.57;;;3.13;;
65998;SDS011;52766;56.008;37.440;2024-02-26T02:23:35;7.68;;;3.15;;
65998;SDS011;52766;56.008;37.440;2024-02-26T02:26:01;6.72;;;2.88;;
65998;SDS011;52766;56.008;37.440;2024-02-26T02:28:27;7.60;;;2.63;;
65998;SDS011;52766;56.008;37.440;2024-02-26T02:30:53;8.02;;;2.92;;
65998;SDS011;52766;56.008;37.440;2024-02-26T02:33:20;7.35;;;2.53;;
65998;SDS011;52766;56.008;37.440;2024-02-26T02:35:46;7.38;;;3.00;;
65998;SDS011;52766;56.008;37.440;2024-02-26T02:38:12;10.52;;;2.67;;
65998;SDS011;52766;56.008;37.440;2024-02-26T02:40:38;9.07;;;2.70;;
65998;SDS011;52766;56.008;37.440;2024-02-26T02:43:04;5.57;;;2.50;;
65998;SDS011;52766;56.008;37.440;2024-02-26T02:45:31;7.28;;;2.80;;
65998;SDS011;52766;56.008;37.440;2024-02-26T02:47:57;7.22;;;2.80;;
65998;SDS011;52766;56.008;37.440;2024-02-26T02:50:23;3.78;;;2.03;;
65998;SDS011;52766;56.008;37.440;2024-02-26T02:52:49;6.28;;;2.92;;
65998;SDS011;52766;56.008;37.440;2024-02-26T02:55:16;7.32;;;2.80;;
65998;SDS011;52766;56.008;37.440;2024-02-26T02:57:42;8.60;;;2.90;;
65998;SDS011;52766;56.008;37.440;2024-02-26T03:00:08;7.28;;;3.10;;
65998;SDS011;52766;56.008;37.440;2024-02-26T03:02:36;8.13;;;2.58;;
65998;SDS011;52766;56.008;37.440;2024-02-26T03:05:03;7.32;;;2.72;;
65998;SDS011;52766;56.008;37.440;2024-02-26T03:07:31;5.82;;;2.70;;
65998;SDS011;52766;56.008;37.440;2024-02-26T03:09:57;6.57;;;2.70;;
65998;SDS011;52766;56.008;37.440;2024-02-26T03:12:23;9.82;;;3.00;;
65998;SDS011;52766;56.008;37.440;2024-02-26T03:14:49;7.28;;;2.80;;
65998;SDS011;52766;56.008;37.440;2024-02-26T03:17:15;7.75;;;2.42;;
65998;SDS011;52766;56.008;37.440;2024-02-26T03:19:41;6.80;;;2.53;;
65998;SDS011;52766;56.008;37.440;2024-02-26T03:22:07;6.22;;;3.08;;
65998;SDS011;52766;56.008;37.440;2024-02-26T03:24:33;5.93;;;2.38;;
65998;SDS011;52766;56.008;37.440;2024-02-26T03:26:59;5.95;;;2.38;;
65998;SDS011;52766;56.008;37.440;2024-02-26T03:29:25;8.90;;;2.88;;
65998;SDS011;52766;56.008;37.440;2024-02-26T03:31:54;10.60;;;2.55;;
65998;SDS011;52766;56.008;37.440;2024-02-26T03:34:20;5.50;;;2.50;;
65998;SDS011;52766;56.008;37.440;2024-02-26T03:36:45;5.72;;;2.33;;
65998;SDS011;52766;56.008;37.440;2024-02-26T03:39:11;6.95;;;2.80;;
65998;SDS011;52766;56.008;37.440;2024-02-26T03:41:37;7.65;;;2.88;;
65998;SDS011;52766;56.008;37.440;2024-02-26T03:44:03;3.25;;;1.58;;
65998;SDS011;52766;56.008;37.440;2024-02-26T03:46:30;8.43;;;2.08;;
65998;SDS011;52766;56.008;37.440;2024-02-26T03:48:56;6.57;;;2.88;;
65998;SDS011;52766;56.008;37.440;2024-02-26T03:51:22;5.43;;;2.30;;
65998;SDS011;52766;56.008;37.440;2024-02-26T03:53:48;7.50;;;2.80;;
65998;SDS011;52766;56.008;37.440;2024-02-26T03:56:14;8.90;;;2.50;;
65998;SDS011;52766;56.008;37.440;2024-02-26T03:58:39;5.25;;;2.35;;
65998;SDS011;52766;56.008;37.440;2024-02-26T04:01:08;6.32;;;2.60;;
65998;SDS011;52766;56.008;37.440;2024-02-26T04:03:35;9.25;;;2.70;;
65998;SDS011;52766;56.008;37.440;2024-02-26T04:06:02;8.70;;;3.40;;
65998;SDS011;52766;56.008;37.440;2024-02-26T04:08:28;6.53;;;2.42;;
65998;SDS011;52766;56.008;37.440;2024-02-26T04:10:55;6.25;;;2.78;;
65998;SDS011;52766;56.008;37.440;2024-02-26T04:13:21;6.35;;;3.15;;
65998;SDS011;52766;56.008;37.440;2024-02-26T04:15:49;6.25;;;2.33;;
65998;SDS011;52766;56.008;37.440;2024-02-26T04:18:23;7.88;;;2.90;;
65998;SDS011;52766;56.008;37.440;2024-02-26T04:20:49;9.07;;;2.40;;
65998;SDS011;52766;56.008;37.440;2024-02-26T04:23:17;5.18;;;2.03;;
65998;SDS011;52766;56.008;37.440;2024-02-26T04:25:44;6.13;;;2.50;;
65998;SDS011;52766;56.008;37.440;2024-02-26T04:28:11;7.05;;;2.80;;
65998;SDS011;52766;56.008;37.440;2024-02-26T04:30:37;9.65;;;2.67;;
65998;SDS011;52766;56.008;37.440;2024-02-26T04:33:04;5.88;;;2.80;;
65998;SDS011;52766;56.008;37.440;2024-02-26T04:35:33;4.82;;;2.28;;
65998;SDS011;52766;56.008;37.440;2024-02-26T04:38:05;4.30;;;1.90;;
65998;SDS011;52766;56.008;37.440;2024-02-26T04:40:33;7.18;;;4.15;;
65998;SDS011;52766;56.008;37.440;2024-02-26T04:43:01;9.48;;;2.95;;
65998;SDS011;52766;56.008;37.440;2024-02-26T04:45:27;5.95;;;1.70;;
65998;SDS011;52766;56.008;37.440;2024-02-26T04:47:53;4.38;;;1.88;;
65998;SDS011;52766;56.008;37.440;2024-02-26T04:50:20;6.13;;;2.42;;
65998;SDS011;52766;56.008;37.440;2024-02-26T04:52:46;7.28;;;2.67;;
65998;SDS011;52766;56.008;37.440;2024-02-26T04:55:17;10.73;;;3.08;;
65998;SDS011;52766;56.008;37.440;2024-02-26T04:57:45;9.13;;;2.92;;
65998;SDS011;52766;56.008;37.440;2024-02-26T05:00:13;7.15;;;2.63;;
65998;SDS011;52766;56.008;37.440;2024-02-26T05:02:39;6.95;;;2.33;;
65998;SDS011;52766;56.008;37.440;2024-02-26T05:05:08;5.47;;;2.45;;
65998;SDS011;52766;56.008;37.440;2024-02-26T05:07:41;4.15;;;2.20;;
65998;SDS011;52766;56.008;37.440;2024-02-26T05:10:09;6.45;;;2.90;;
65998;SDS011;52766;56.008;37.440;2024-02-26T05:12:36;5.10;;;2.30;;
65998;SDS011;52766;56.008;37.440;2024-02-26T05:15:07;7.82;;;2.72;;
65998;SDS011;52766;56.008;37.440;2024-02-26T05:17:37;6.13;;;3.40;;
65998;SDS011;52766;56.008;37.440;2024-02-26T05:20:05;7.82;;;2.75;;
65998;SDS011;52766;56.008;37.440;2024-02-26T05:22:34;8.00;;;3.33;;
65998;SDS011;52766;56.008;37.440;2024-02-26T05:25:00;6.60;;;3.05;;
65998;SDS011;52766;56.008;37.440;2024-02-26T05:27:29;6.80;;;2.42;;
65998;SDS011;52766;56.008;37.440;2024-02-26T05:29:55;10.18;;;3.22;;
65998;SDS011;52766;56.008;37.440;2024-02-26T05:32:21;4.57;;;2.17;;
65998;SDS011;52766;56.008;37.440;2024-02-26T05:34:47;7.75;;;2.92;;
65998;SDS011;52766;56.008;37.440;2024-02-26T05:37:15;9.38;;;3.03;;
65998;SDS011;52766;56.008;37.440;2024-02-26T05:39:44;5.53;;;2.65;;
65998;SDS011;52766;56.008;37.440;2024-02-26T05:42:09;8.25;;;3.58;;
65998;SDS011;52766;56.008;37.440;2024-02-26T05:44:35;7.57;;;3.05;;
65998;SDS011;52766;56.008;37.440;2024-02-26T05:47:02;7.70;;;3.08;;
65998;SDS011;52766;56.008;37.440;2024-02-26T05:49:28;6.75;;;2.10;;
65998;SDS011;52766;56.008;37.440;2024-02-26T05:51:56;5.45;;;2.22;;
65998;SDS011;52766;56.008;37.440;2024-02-26T05:54:21;7.93;;;3.03;;
65998;SDS011;52766;56.008;37.440;2024-02-26T05:56:49;7.20;;;2.83;;
65998;SDS011;52766;56.008;37.440;2024-02-26T05:59:18;5.68;;;2.95;;
65998;SDS011;52766;56.008;37.440;2024-02-26T06:01:43;18.17;;;3.83;;
65998;SDS011;52766;56.008;37.440;2024-02-26T06:04:11;5.60;;;2.47;;
65998;SDS011;52766;56.008;37.440;2024-02-26T06:06:37;9.40;;;4.53;;
65998;SDS011;52766;56.008;37.440;2024-02-26T06:09:03;4.32;;;2.35;;
65998;SDS011;52766;56.008;37.440;2024-02-26T06:11:36;11.95;;;4.10;;
65998;SDS011;52766;56.008;37.440;2024-02-26T06:14:05;8.43;;;3.45;;
65998;SDS011;52766;56.008;37.440;2024-02-26T06:16:32;12.10;;;3.47;;
65998;SDS011;52766;56.008;37.440;2024-02-26T06:18:58;9.75;;;3.17;;
65998;SDS011;52766;56.008;37.440;2024-02-26T06:21:25;9.20;;;3.75;;
65998;SDS011;52766;56.008;37.440;2024-02-26T06:23:52;7.40;;;3.42;;
65998;SDS011;52766;56.008;37.440;2024-02-26T06:26:18;11.43;;;4.05;;
65998;SDS011;52766;56.008;37.440;2024-02-26T06:28:48;8.95;;;3.40;;
65998;SDS011;52766;56.008;37.440;2024-02-26T06:31:16;6.13;;;2.72;;
65998;SDS011;52766;56.008;37.440;2024-02-26T06:33:44;6.45;;;2.85;;
65998;SDS011;52766;56.008;37.440;2024-02-26T06:36:13;7.63;;;2.80;;
65998;SDS011;52766;56.008;37.440;2024-02-26T06:38:40;6.82;;;3.05;;
65998;SDS011;52766;56.008;37.440;2024-02-26T06:41:06;6.30;;;2.83;;
65998;SDS011;52766;56.008;37.440;2024-02-26T06:43:32;10.10;;;3.95;;
65998;SDS011;52766;56.008;37.440;2024-02-26T06:45:59;10.93;;;3.92;;
65998;SDS011;52766;56.008;37.440;2024-02-26T06:48:27;6.05;;;2.72;;
65998;SDS011;52766;56.008;37.440;2024-02-26T06:50:54;8.73;;;3.45;;
65998;SDS011;52766;56.008;37.440;2024-02-26T06:53:20;8.82;;;3.63;;
65998;SDS011;52766;56.008;37.440;2024-02-26T06:55:47;12.57;;;4.38;;
65998;SDS011;52766;56.008;37.440;2024-02-26T06:58:15;10.00;;;3.97;;
65998;SDS011;52766;56.008;37.440;2024-02-26T07:00:42;11.00;;;3.63;;
65998;SDS011;52766;56.008;37.440;2024-02-26T07:03:09;12.40;;;4.22;;
65998;SDS011;52766;56.008;37.440;2024-02-26T07:05:35;9.60;;;4.22;;
65998;SDS011;52766;56.008;37.440;2024-02-26T07:08:02;12.05;;;3.97;;
65998;SDS011;52766;56.008;37.440;2024-02-26T07:10:28;5.65;;;2.80;;
65998;SDS011;52766;56.008;37.440;2024-02-26T07:12:57;9.20;;;3.30;;
65998;SDS011;52766;56.008;37.440;2024-02-26T07:15:25;10.85;;;4.07;;
65998;SDS011;52766;56.008;37.440;2024-02-26T07:17:51;7.82;;;4.20;;
65998;SDS011;52766;56.008;37.440;2024-02-26T07:20:16;18.42;;;5.38;;
65998;SDS011;52766;56.008;37.440;2024-02-26T07:22:44;10.32;;;4.93;;
65998;SDS011;52766;56.008;37.440;2024-02-26T07:25:11;10.18;;;4.43;;
65998;SDS011;52766;56.008;37.440;2024-02-26T07:27:39;10.02;;;3.80;;
65998;SDS011;52766;56.008;37.440;2024-02-26T07:30:09;7.72;;;3.70;;
65998;SDS011;52766;56.008;37.440;2024-02-26T07:32:38;7.78;;;3.38;;
65998;SDS011;52766;56.008;37.440;2024-02-26T07:35:07;9.18;;;3.55;;
65998;SDS011;52766;56.008;37.440;2024-02-26T07:37:36;11.77;;;4.63;;
65998;SDS011;52766;56.008;37.440;2024-02-26T07:40:02;8.75;;;4.10;;
65998;SDS011;52766;56.008;37.440;2024-02-26T07:42:31;9.82;;;4.57;;
65998;SDS011;52766;56.008;37.440;2024-02-26T07:44:57;7.50;;;2.63;;
65998;SDS011;52766;56.008;37.440;2024-02-26T07:47:24;9.93;;;4.18;;
65998;SDS011;52766;56.008;37.440;2024-02-26T07:49:54;9.73;;;4.75;;
65998;SDS011;52766;56.008;37.440;2024-02-26T07:52:20;10.60;;;4.55;;
65998;SDS011;52766;56.008;37.440;2024-02-26T07:54:48;5.13;;;2.65;;
65998;SDS011;52766;56.008;37.440;2024-02-26T07:57:15;9.93;;;4.60;;
65998;SDS011;52766;56.008;37.440;2024-02-26T07:59:49;13.18;;;4.35;;
65998;SDS011;52766;56.008;37.440;2024-02-26T08:02:17;12.43;;;4.72;;
65998;SDS011;52766;56.008;37.440;2024-02-26T08:04:43;10.18;;;4.30;;
65998;SDS011;52766;56.008;37.440;2024-02-26T08:07:09;14.00;;;5.63;;
65998;SDS011;52766;56.008;37.440;2024-02-26T08:09:38;8.65;;;3.72;;
65998;SDS011;52766;56.008;37.440;2024-02-26T08:12:05;10.13;;;4.60;;
65998;SDS011;52766;56.008;37.440;2024-02-26T08:14:32;14.23;;;4.43;;
65998;SDS011;52766;56.008;37.440;2024-02-26T08:16:59;10.63;;;4.15;;
65998;SDS011;52766;56.008;37.440;2024-02-26T08:19:26;8.27;;;3.20;;
65998;SDS011;52766;56.008;37.440;2024-02-26T08:21:58;12.57;;;4.43;;
65998;SDS011;52766;56.008;37.440;2024-02-26T08:24:27;14.20;;;5.68;;
65998;SDS011;52766;56.008;37.440;2024-02-26T08:26:59;9.15;;;4.78;;
65998;SDS011;52766;56.008;37.440;2024-02-26T08:29:29;12.00;;;5.07;;
65998;SDS011;52766;56.008;37.440;2024-02-26T08:32:02;13.93;;;4.93;;
65998;SDS011;52766;56.008;37.440;2024-02-26T08:34:34;11.60;;;4.45;;
65998;SDS011;52766;56.008;37.440;2024-02-26T08:39:57;18.20;;;6.03;;
65998;SDS011;52766;56.008;37.440;2024-02-26T08:42:23;10.10;;;3.70;;
65998;SDS011;52766;56.008;37.440;2024-02-26T08:44:55;7.80;;;3.90;;
65998;SDS011;52766;56.008;37.440;2024-02-26T08:47:50;13.82;;;5.55;;
65998;SDS011;52766;56.008;37.440;2024-02-26T08:50:18;11.23;;;4.75;;
65998;SDS011;52766;56.008;37.440;2024-02-26T08:52:49;9.43;;;3.72;;
65998;SDS011;52766;56.008;37.440;2024-02-26T08:55:22;11.38;;;5.00;;
65998;SDS011;52766;56.008;37.440;2024-02-26T08:57:51;11.98;;;5.05;;
65998;SDS011;52766;56.008;37.440;2024-02-26T09:00:18;10.98;;;3.30;;
65998;SDS011;52766;56.008;37.440;2024-02-26T09:02:47;14.75;;;4.88;;
65998;SDS011;52766;56.008;37.440;2024-02-26T09:05:16;11.80;;;4.47;;
65998;SDS011;52766;56.008;37.440;2024-02-26T09:07:42;9.73;;;3.85;;
65998;SDS011;52766;56.008;37.440;2024-02-26T09:10:09;10.13;;;4.72;;
65998;SDS011;52766;56.008;37.440;2024-02-26T09:12:36;13.20;;;4.93;;
65998;SDS011;52766;56.008;37.440;2024-02-26T09:15:04;15.02;;;4.82;;
65998;SDS011;52766;56.008;37.440;2024-02-26T09:17:33;12.35;;;5.05;;
65998;SDS011;52766;56.008;37.440;2024-02-26T09:20:02;11.88;;;5.22;;
65998;SDS011;52766;56.008;37.440;2024-02-26T09:22:31;13.00;;;5.07;;
65998;SDS011;52766;56.008;37.440;2024-02-26T09:25:01;14.57;;;5.30;;
65998;SDS011;52766;56.008;37.440;2024-02-26T09:27:34;11.80;;;5.68;;
65998;SDS011;52766;56.008;37.440;2024-02-26T09:30:04;10.25;;;4.20;;
65998;SDS011;52766;56.008;37.440;2024-02-26T09:32:34;9.75;;;3.63;;
65998;SDS011;52766;56.008;37.440;2024-02-26T09:35:01;11.57;;;5.50;;
65998;SDS011;52766;56.008;37.440;2024-02-26T09:37:30;12.90;;;5.05;;
65998;SDS011;52766;56.008;37.440;2024-02-26T09:39:56;12.35;;;5.88;;
65998;SDS011;52766;56.008;37.440;2024-02-26T09:42:23;15.40;;;6.03;;
65998;SDS011;52766;56.008;37.440;2024-02-26T09:44:51;10.60;;;4.25;;
65998;SDS011;52766;56.008;37.440;2024-02-26T09:47:20;17.55;;;4.75;;
65998;SDS011;52766;56.008;37.440;2024-02-26T09:49:49;9.80;;;3.63;;
65998;SDS011;52766;56.008;37.440;2024-02-26T09:52:21;7.80;;;3.72;;
65998;SDS011;52766;56.008;37.440;2024-02-26T09:54:47;8.55;;;3.95;;
65998;SDS011;52766;56.008;37.440;2024-02-26T09:57:15;10.50;;;4.47;;
65998;SDS011;52766;56.008;37.440;2024-02-26T09:59:43;7.88;;;3.60;;
65998;SDS011;52766;56.008;37.440;2024-02-26T10:02:13;14.30;;;4.88;;
65998;SDS011;52766;56.008;37.440;2024-02-26T10:04:42;6.95;;;3.47;;
65998;SDS011;52766;56.008;37.440;2024-02-26T10:07:16;13.95;;;5.22;;
65998;SDS011;52766;56.008;37.440;2024-02-26T10:09:42;7.72;;;3.78;;
65998;SDS011;52766;56.008;37.440;2024-02-26T10:12:15;10.07;;;4.30;;
65998;SDS011;52766;56.008;37.440;2024-02-26T10:14:43;10.95;;;4.20;;
65998;SDS011;52766;56.008;37.440;2024-02-26T10:17:09;9.40;;;4.82;;
65998;SDS011;52766;56.008;37.440;2024-02-26T10:19:37;8.40;;;3.90;;
65998;SDS011;52766;56.008;37.440;2024-02-26T10:22:04;12.50;;;5.05;;
65998;SDS011;52766;56.008;37.440;2024-02-26T10:24:36;13.10;;;4.53;;
65998;SDS011;52766;56.008;37.440;2024-02-26T10:27:02;14.65;;;5.35;;
65998;SDS011;52766;56.008;37.440;2024-02-26T10:29:30;12.77;;;5.38;;
65998;SDS011;52766;56.008;37.440;2024-02-26T10:32:05;15.48;;;4.75;;
65998;SDS011;52766;56.008;37.440;2024-02-26T10:34:35;11.07;;;5.05;;
65998;SDS011;52766;56.008;37.440;2024-02-26T10:37:07;13.73;;;5.07;;
65998;SDS011;52766;56.008;37.440;2024-02-26T10:39:36;13.13;;;5.55;;
65998;SDS011;52766;56.008;37.440;2024-02-26T10:42:06;12.88;;;4.53;;
65998;SDS011;52766;56.008;37.440;2024-02-26T10:44:46;7.78;;;3.38;;
65998;SDS011;52766;56.008;37.440;2024-02-26T10:47:20;14.05;;;5.15;;
65998;SDS011;52766;56.008;37.440;2024-02-26T10:49:48;11.48;;;3.95;;
65998;SDS011;52766;56.008;37.440;2024-02-26T10:52:16;8.45;;;3.85;;
65998;SDS011;52766;56.008;37.440;2024-02-26T10:54:53;13.40;;;5.13;;
65998;SDS011;52766;56.008;37.440;2024-02-26T10:57:35;7.00;;;4.07;;
65998;SDS011;52766;56.008;37.440;2024-02-26T11:00:04;11.55;;;4.55;;
65998;SDS011;52766;56.008;37.440;2024-02-26T11:02:35;8.95;;;4.43;;
65998;SDS011;52766;56.008;37.440;2024-02-26T11:05:05;11.40;;;4.78;;
65998;SDS011;52766;56.008;37.440;2024-02-26T11:07:34;15.52;;;4.78;;
65998;SDS011;52766;56.008;37.440;2024-02-26T11:10:05;10.50;;;4.70;;
65998;SDS011;52766;56.008;37.440;2024-02-26T11:12:35;9.85;;;5.10;;
65998;SDS011;52766;56.008;37.440;2024-02-26T11:15:03;12.90;;;4.47;;
65998;SDS011;52766;56.008;37.440;2024-02-26T11:17:31;18.15;;;6.47;;
65998;SDS011;52766;56.008;37.440;2024-02-26T11:19:58;12.20;;;5.00;;
65998;SDS011;52766;56.008;37.440;2024-02-26T11:22:50;9.63;;;3.35;;
65998;SDS011;52766;56.008;37.440;2024-02-26T11:25:16;10.63;;;4.65;;
65998;SDS011;52766;56.008;37.440;2024-02-26T11:28:04;10.57;;;4.90;;
65998;SDS011;52766;56.008;37.440;2024-02-26T11:30:35;8.27;;;3.72;;
65998;SDS011;52766;56.008;37.440;2024-02-26T11:33:12;9.70;;;4.22;;
65998;SDS011;52766;56.008;37.440;2024-02-26T11:35:49;15.63;;;5.13;;
65998;SDS011;52766;56.008;37.440;2024-02-26T11:38:19;12.38;;;4.32;;
65998;SDS011;52766;56.008;37.440;2024-02-26T11:40:52;7.43;;;3.53;;
65998;SDS011;52766;56.008;37.440;2024-02-26T11:43:23;9.05;;;3.50;;
65998;SDS011;52766;56.008;37.440;2024-02-26T11:46:33;12.13;;;4.40;;
65998;SDS011;52766;56.008;37.440;2024-02-26T11:52:12;16.13;;;4.05;;
65998;SDS011;52766;56.008;37.440;2024-02-26T12:03:02;14.85;;;4.03;;
65998;SDS011;52766;56.008;37.440;2024-02-26T12:05:45;8.10;;;3.30;;
65998;SDS011;52766;56.008;37.440;2024-02-26T12:08:29;10.02;;;4.53;;
65998;SDS011;52766;56.008;37.440;2024-02-26T12:11:14;6.53;;;3.88;;
65998;SDS011;52766;56.008;37.440;2024-02-26T12:13:45;11.15;;;3.85;;
65998;SDS011;52766;56.008;37.440;2024-02-26T12:19:13;12.30;;;4.53;;
65998;SDS011;52766;56.008;37.440;2024-02-26T12:21:41;14.10;;;5.40;;
65998;SDS011;52766;56.008;37.440;2024-02-26T12:24:23;12.63;;;5.30;;
65998;SDS011;52766;56.008;37.440;2024-02-26T12:26:52;11.40;;;3.88;;
65998;SDS011;52766;56.008;37.440;2024-02-26T12:29:23;11.40;;;5.40;;
65998;SDS011;52766;56.008;37.440;2024-02-26T12:31:52;12.98;;;5.25;;
65998;SDS011;52766;56.008;37.440;2024-02-26T12:34:25;12.18;;;5.50;;
65998;SDS011;52766;56.008;37.440;2024-02-26T12:36:55;14.63;;;5.15;;
65998;SDS011;52766;56.008;37.440;2024-02-26T12:39:26;13.48;;;4.88;;
65998;SDS011;52766;56.008;37.440;2024-02-26T12:42:00;10.73;;;4.07;;
65998;SDS011;52766;56.008;37.440;2024-02-26T12:45:10;15.10;;;5.22;;
65998;SDS011;52766;56.008;37.440;2024-02-26T12:50:57;14.23;;;5.60;;
65998;SDS011;52766;56.008;37.440;2024-02-26T12:53:34;11.85;;;5.90;;
65998;SDS011;52766;56.008;37.440;2024-02-26T12:56:24;10.82;;;5.40;;
65998;SDS011;52766;56.008;37.440;2024-02-26T12:58:56;6.90;;;4.07;;
65998;SDS011;52766;56.008;37.440;2024-02-26T13:01:25;17.02;;;5.53;;
65998;SDS011;52766;56.008;37.440;2024-02-26T13:03:56;12.88;;;6.35;;
65998;SDS011;52766;56.008;37.440;2024-02-26T13:06:26;16.88;;;5.70;;
65998;SDS011;52766;56.008;37.440;2024-02-26T13:08:56;10.98;;;3.75;;
65998;SDS011;52766;56.008;37.440;2024-02-26T13:11:28;14.38;;;5.28;;
65998;SDS011;52766;56.008;37.440;2024-02-26T13:13:57;17.52;;;6.53;;
65998;SDS011;52766;56.008;37.440;2024-02-26T13:16:28;12.32;;;4.97;;
65998;SDS011;52766;56.008;37.440;2024-02-26T13:18:54;17.88;;;5.65;;
65998;SDS011;52766;56.008;37.440;2024-02-26T13:21:32;11.27;;;5.15;;
65998;SDS011;52766;56.008;37.440;2024-02-26T13:23:59;16.13;;;5.35;;
65998;SDS011;52766;56.008;37.440;2024-02-26T13:26:28;13.73;;;5.90;;
65998;SDS011;52766;56.008;37.440;2024-02-26T13:29:00;17.75;;;5.88;;
65998;SDS011;52766;56.008;37.440;2024-02-26T13:31:54;12.57;;;5.82;;
65998;SDS011;52766;56.008;37.440;2024-02-26T13:34:25;13.98;;;5.72;;
65998;SDS011;52766;56.008;37.440;2024-02-26T13:37:05;10.15;;;3.90;;
65998;SDS011;52766;56.008;37.440;2024-02-26T13:39:35;16.88;;;5.70;;
65998;SDS011;52766;56.008;37.440;2024-02-26T13:42:03;8.30;;;4.53;;
65998;SDS011;52766;56.008;37.440;2024-02-26T13:44:34;10.60;;;3.47;;
65998;SDS011;52766;56.008;37.440;2024-02-26T13:47:13;22.05;;;5.38;;
65998;SDS011;52766;56.008;37.440;2024-02-26T13:50:02;17.40;;;5.20;;
65998;SDS011;52766;56.008;37.440;2024-02-26T13:52:32;9.07;;;3.85;;
65998;SDS011;52766;56.008;37.440;2024-02-26T13:55:00;9.90;;;3.63;;
65998;SDS011;52766;56.008;37.440;2024-02-26T13:57:33;7.07;;;3.50;;
65998;SDS011;52766;56.008;37.440;2024-02-26T14:00:07;11.23;;;4.70;;
65998;SDS011;52766;56.008;37.440;2024-02-26T14:02:38;11.45;;;3.80;;
65998;SDS011;52766;56.008;37.440;2024-02-26T14:05:06;16.25;;;5.15;;
65998;SDS011;52766;56.008;37.440;2024-02-26T14:07:34;11.05;;;4.45;;
65998;SDS011;52766;56.008;37.440;2024-02-26T14:10:03;9.18;;;3.63;;
65998;SDS011;52766;56.008;37.440;2024-02-26T14:12:32;6.88;;;3.65;;
65998;SDS011;52766;56.008;37.440;2024-02-26T14:14:58;8.95;;;4.00;;
65998;SDS011;52766;56.008;37.440;2024-02-26T14:17:26;9.93;;;3.75;;
65998;SDS011;52766;56.008;37.440;2024-02-26T14:20:02;8.98;;;4.10;;
65998;SDS011;52766;56.008;37.440;2024-02-26T14:22:35;14.50;;;4.75;;
65998;SDS011;52766;56.008;37.440;2024-02-26T14:25:06;12.75;;;4.50;;
65998;SDS011;52766;56.008;37.440;2024-02-26T14:27:40;16.08;;;3.80;;
65998;SDS011;52766;56.008;37.440;2024-02-26T14:30:18;7.65;;;3.10;;
65998;SDS011;52766;56.008;37.440;2024-02-26T14:32:48;11.80;;;4.28;;
65998;SDS011;52766;56.008;37.440;2024-02-26T14:35:26;10.00;;;3.25;;
65998;SDS011;52766;56.008;37.440;2024-02-26T14:37:54;10.43;;;3.47;;
65998;SDS011;52766;56.008;37.440;2024-02-26T14:40:27;7.20;;;3.38;;
65998;SDS011;52766;56.008;37.440;2024-02-26T14:42:55;8.15;;;3.40;;
65998;SDS011;52766;56.008;37.440;2024-02-26T14:45:25;10.45;;;3.30;;
65998;SDS011;52766;56.008;37.440;2024-02-26T14:47:52;8.50;;;3.17;;
65998;SDS011;52766;56.008;37.440;2024-02-26T14:50:41;9.20;;;3.20;;
65998;SDS011;52766;56.008;37.440;2024-02-26T14:53:10;7.93;;;3.25;;
65998;SDS011;52766;56.008;37.440;2024-02-26T14:55:39;11.50;;;3.08;;
65998;SDS011;52766;56.008;37.440;2024-02-26T14:58:08;8.02;;;4.68;;
65998;SDS011;52766;56.008;37.440;2024-02-26T15:00:45;12.00;;;3.67;;